Airfield :
LOGIN :

Register | Disclaimer

   EN    FR    IT 

 










Legend :    VFR   Marginal VFR   IFR   Intensive IFR   Very Intensive IFR
Visi :
Ceiling :
>= 8 km
>= 3000ft
5 to 8 km
1000 to 3000 ft
1500m to 5 km
500 to 1000 ft
800 to 1500m
200 to 500 ft
< 800m
< 200 ft
Symbols :   Thunderstorms  Fog  Heavy snow  Heavy precipitations  Wind > 20 kt
SIGMETs :     Misc.  Thunderstorms  Icing  Turbulence  Mountain Waves  Volcanic Ashes







- Airport Elevation : 538 ft
- IATA code : TNF
- Download approach charts


LFPN - Toussus Le Noble

CURRENT METAR :
  • 191330Z AUTO 34008KT 310V020 9999 BKN027 BKN032 08/03 Q1023 NOSIG

EXPIRED METARs :
  • 191300Z AUTO 34007KT 310V020 9999 BKN032 OVC170 09/03 Q1023 NOSIG
  • 191230Z AUTO 34004KT 310V040 9999 SCT027 OVC035 08/03 Q1023 NOSIG
  • 191200Z AUTO 36005KT 330V030 9999 BKN026 OVC034 08/03 Q1023 NOSIG
  • 191130Z AUTO 35005KT 310V030 9999 OVC029 08/03 Q1023 NOSIG
  • 191100Z AUTO 34005KT 300V030 9999 BKN025 BKN030 08/03 Q1024 NOSIG

TAF TAF LFPN
Valid from the 19 at 12:00 until the 19 at 21:00 UTC


191100Z 1912/1921 33007KT 9999 BKN025
BECMG 1916/1919 VRB03KT CAVOK
ATIS : +33 1 39 56 54 70
No reported NOTAMs for that airfield.



MET'MAP, your aeronautical weather chart ! - Copyright ORBIFLY December 2007 - Disclaimer

ORBIFLY MET'MAP TEAM :

Programming & Development : Alexandra Zaïnal
Concept & Development : Baudouin d'Aumeries
Co-Development & Prog : Marc-Olivier Méhu
Technical & hardware support : Manuel Goepfert

Contact : metmap@orbifly.com




SOURCES & CREDITS :

   NOAA